< < Back
Terminal Aerodrome Forecast


Current Version              Previous Versions:   1  2  3  4  5  6  7  8  9  

Terminal Aerodrome Forecast

981
FTUS42 KGSP 311734
TAFGSP
TAF
KGSP 311734Z 3118/0118 03006KT P6SM SCT070
     FM010300 04004KT P6SM FEW250
     FM011600 35004KT P6SM FEW070=



Latest METAR

163
SAUS70 KWBC 011756
MTRGSP
METAR KGSP 011753Z 10SM CLR 32/13 A2997 RMK AO2 SLP135 T03220133 10328
20233 58010


USA.gov is the U.S. government's official web portal to all federal, state and local government web resources and services.